Airfield :
LOGIN :

Register | Disclaimer

   EN    FR    IT 

 










Legend :    VFR   Marginal VFR   IFR   Intensive IFR   Very Intensive IFR
Visi :
Ceiling :
>= 8 km
>= 3000ft
5 to 8 km
1000 to 3000 ft
1500m to 5 km
500 to 1000 ft
800 to 1500m
200 to 500 ft
< 800m
< 200 ft
Symbols :   Thunderstorms  Fog  Heavy snow  Heavy precipitations  Wind > 20 kt
SIGMETs :     Misc.  Thunderstorms  Icing  Turbulence  Mountain Waves  Volcanic Ashes







- Airport Elevation : 1649 ft
- IATA code : HHN


EDFH - Frankfurt-Hahn Rhineland-Palatinate

CURRENT METAR :
  • 131620Z 26011KT 9999 FEW023 08/05 Q1028

EXPIRED METARs :
  • 131550Z 25010KT 220V280 9999 FEW022 09/05 Q1028
  • 131520Z 26009KT 9999 FEW020 09/06 Q1027
  • 131450Z 25011G21KT 9999 FEW025 10/06 Q1027
  • 131420Z 25011KT 9999 FEW025 09/06 Q1026
  • 131350Z 24011KT 9999 FEW020 09/06 Q1026

TAF TAF EDFH
Valid from the 13 at 12:00 until the 14 at 12:00 UTC


131100Z 1312/1412 25011KT 9999 BKN012
TEMPO 1312/1318 27015G25KT BKN020
BECMG 1318/1321 24006KT FEW012
TEMPO 1400/1410 2500 BR
BECMG 1402/1404 17006KT
PROB30
TEMPO 1402/1408 0200 FG OVC001
No reported NOTAMs for that airfield.



MET'MAP, your aeronautical weather chart ! - Copyright ORBIFLY December 2007 - Disclaimer

ORBIFLY MET'MAP TEAM :

Programming & Development : Alexandra Zaïnal
Concept & Development : Baudouin d'Aumeries
Co-Development & Prog : Marc-Olivier Méhu
Technical & hardware support : Manuel Goepfert

Contact : metmap@orbifly.com




SOURCES & CREDITS :

   NOAA